Time;durP1;ratioP1;P1;durP2;ratioP2;P2;SDS_P1;SDS_P2;PMS_P1;PMS_P2;Temp;Humidity;BMP_temperature;BMP_pressure;BME280_temperature;BME280_humidity;BME280_pressure;Samples;Min_cycle;Max_cycle;Signal;HPM_P1;HPM_P2
2023/10/10 00:02:34;;;;;;;8.8;5.5;;;;;;;7.99;87.91;;;;;
2023/10/10 00:12:35;;;;;;;8.8;5.5;;;;;;;8;87.91;;;;;
2023/10/10 00:23:38;;;;;;;8.8;5.5;;;;;;;8;87.8;;;;;
2023/10/10 00:34:34;;;;;;;10.8;5.2;;;;;;;7.89;88.16;;;;;
2023/10/10 00:44:37;;;;;;;10.8;5.2;;;;;;;7.72;88.92;;;;;
2023/10/10 00:55:33;;;;;;;10.8;5.2;;;;;;;7.66;88.83;;;;;
2023/10/10 01:05:42;;;;;;;9.6;5.1;;;;;;;7.85;88.28;;;;;
2023/10/10 01:16:33;;;;;;;9.6;5.1;;;;;;;7.96;87.93;;;;;
2023/10/10 01:26:37;;;;;;;9.6;5.1;;;;;;;8.04;88.05;;;;;
2023/10/10 01:36:33;;;;;;;11.5;4.7;;;;;;;8.09;87.52;;;;;
2023/10/10 01:46:34;;;;;;;11.5;4.7;;;;;;;8.07;87.54;;;;;
2023/10/10 01:57:33;;;;;;;11.5;4.7;;;;;;;8.14;86.85;;;;;
2023/10/10 02:08:34;;;;;;;11.7;4.5;;;;;;;8.11;87.44;;;;;
2023/10/10 02:19:39;;;;;;;11.7;4.5;;;;;;;7.89;87.14;;;;;
2023/10/10 02:30:34;;;;;;;8.7;4.7;;;;;;;8.02;87.06;;;;;
2023/10/10 02:41:38;;;;;;;8.7;4.7;;;;;;;8.12;86.81;;;;;
2023/10/10 02:51:34;;;;;;;8.7;4.7;;;;;;;8.02;86.71;;;;;
2023/10/10 03:02:40;;;;;;;10;4.5;;;;;;;8.04;86.78;;;;;
2023/10/10 03:13:36;;;;;;;10;4.5;;;;;;;8.03;86.42;;;;;
2023/10/10 03:23:43;;;;;;;10;4.5;;;;;;;7.96;87.06;;;;;
2023/10/10 03:34:44;;;;;;;9.9;4.5;;;;;;;7.85;87.42;;;;;
2023/10/10 05:29:34;;;;;;;14.7;7.8;;;;;;;8.04;88.04;;;;;
2023/10/10 05:40:34;;;;;;;17.6;9;;;;;;;8.29;87.6;;;;;
2023/10/10 05:51:35;;;;;;;17.6;9;;;;;;;8.43;88.02;;;;;
2023/10/10 06:02:34;;;;;;;16.3;8.8;;;;;;;8.26;88.04;;;;;
2023/10/10 06:12:36;;;;;;;16.3;8.8;;;;;;;8.46;87.09;;;;;
2023/10/10 06:22:34;;;;;;;16.3;8.8;;;;;;;8.47;87.12;;;;;
2023/10/10 06:32:35;;;;;;;12.7;7.2;;;;;;;8.84;86.09;;;;;
2023/10/10 06:43:34;;;;;;;12.7;7.2;;;;;;;8.96;86.35;;;;;
2023/10/10 06:53:35;;;;;;;12.7;7.2;;;;;;;9.39;84.86;;;;;
2023/10/10 07:03:39;;;;;;;14.6;7.7;;;;;;;9.64;84.04;;;;;
2023/10/10 07:14:40;;;;;;;14.6;7.7;;;;;;;9.7;83.48;;;;;
2023/10/10 07:24:40;;;;;;;14.6;7.7;;;;;;;9.82;83.51;;;;;
2023/10/10 07:35:36;;;;;;;12.2;6.9;;;;;;;10.3;83.28;;;;;
2023/10/10 07:45:34;;;;;;;12.2;6.9;;;;;;;10.83;81.18;;;;;
2023/10/10 07:55:50;;;;;;;12.2;6.9;;;;;;;10.83;80.91;;;;;
2023/10/10 08:05:34;;;;;;;10;6.5;;;;;;;10.59;80.67;;;;;
2023/10/10 08:15:35;;;;;;;10;6.5;;;;;;;10.89;80.38;;;;;
2023/10/10 08:25:37;;;;;;;10;6.5;;;;;;;11.3;80.13;;;;;
2023/10/10 08:36:34;;;;;;;11.8;7.9;;;;;;;12.21;77.17;;;;;
2023/10/10 08:46:40;;;;;;;11.8;7.9;;;;;;;12.11;76.51;;;;;
2023/10/10 08:57:38;;;;;;;11.8;7.9;;;;;;;12.35;76.11;;;;;
2023/10/10 09:08:34;;;;;;;13.9;9.9;;;;;;;12.82;74.22;;;;;
2023/10/10 09:19:34;;;;;;;13.9;9.9;;;;;;;13.27;74.01;;;;;
2023/10/10 09:30:34;;;;;;;16.8;10.3;;;;;;;13.71;74.15;;;;;
2023/10/10 09:40:39;;;;;;;16.8;10.3;;;;;;;12.89;75.24;;;;;
2023/10/10 10:02:40;;;;;;;13.2;11;;;;;;;13.99;73.39;;;;;
2023/10/10 10:13:37;;;;;;;13.2;11;;;;;;;13.8;74.08;;;;;
2023/10/10 10:23:42;;;;;;;13.2;11;;;;;;;13.97;74.39;;;;;
2023/10/10 10:34:35;;;;;;;13.4;10.2;;;;;;;14.34;72.07;;;;;
2023/10/10 10:45:34;;;;;;;13.4;10.2;;;;;;;14.31;71.74;;;;;
2023/10/10 10:55:39;;;;;;;13.4;10.2;;;;;;;14.51;72.12;;;;;
2023/10/10 11:06:34;;;;;;;14.3;9.1;;;;;;;14.99;71.97;;;;;
2023/10/10 11:17:38;;;;;;;14.3;9.1;;;;;;;14.57;73.03;;;;;
2023/10/10 11:27:43;;;;;;;14.3;9.1;;;;;;;14.65;71.13;;;;;
2023/10/10 11:37:34;;;;;;;12.7;9.6;;;;;;;14.4;72.5;;;;;
2023/10/10 11:48:34;;;;;;;12.7;9.6;;;;;;;14.12;73.84;;;;;
2023/10/10 11:58:35;;;;;;;12.7;9.6;;;;;;;13.99;74.77;;;;;
2023/10/10 12:08:37;;;;;;;13.1;9.7;;;;;;;13.91;74.71;;;;;
2023/10/10 12:19:36;;;;;;;13.1;9.7;;;;;;;13.86;74.56;;;;;
2023/10/10 12:29:34;;;;;;;13.1;9.7;;;;;;;13.75;75.03;;;;;
2023/10/10 12:40:34;;;;;;;10.6;8.1;;;;;;;14.23;75.32;;;;;
2023/10/10 12:51:34;;;;;;;10.6;8.1;;;;;;;14.04;74.39;;;;;
2023/10/10 13:02:34;;;;;;;12.2;8.2;;;;;;;14.18;73.87;;;;;
2023/10/10 13:12:35;;;;;;;12.2;8.2;;;;;;;14.36;74.21;;;;;
2023/10/10 13:22:34;;;;;;;12.2;8.2;;;;;;;14.51;74.28;;;;;
2023/10/10 13:33:34;;;;;;;13;8.9;;;;;;;14.36;74.25;;;;;
2023/10/10 13:43:34;;;;;;;13;8.9;;;;;;;14.37;74.35;;;;;
2023/10/10 13:53:34;;;;;;;13;8.9;;;;;;;14.46;75.19;;;;;
2023/10/10 14:04:46;;;;;;;12;8.3;;;;;;;14.53;74.91;;;;;
2023/10/10 14:14:34;;;;;;;12;8.3;;;;;;;14.67;75.59;;;;;
2023/10/10 14:24:35;;;;;;;12;8.3;;;;;;;14.56;75.14;;;;;
2023/10/10 14:35:34;;;;;;;12.4;7.6;;;;;;;14.45;75.63;;;;;
2023/10/10 14:46:34;;;;;;;12.4;7.6;;;;;;;14.4;76.28;;;;;
2023/10/10 14:56:35;;;;;;;12.4;7.6;;;;;;;14.56;75.62;;;;;
2023/10/10 15:07:34;;;;;;;11.9;7.8;;;;;;;14.48;75.79;;;;;
2023/10/10 15:17:34;;;;;;;11.9;7.8;;;;;;;13.8;78.65;;;;;
2023/10/10 15:27:34;;;;;;;11.9;7.8;;;;;;;13.77;79.08;;;;;
2023/10/10 15:37:34;;;;;;;16.9;12.3;;;;;;;13.61;79.9;;;;;
2023/10/10 15:48:42;;;;;;;16.9;12.3;;;;;;;13.18;81.26;;;;;
2023/10/10 15:59:35;;;;;;;16.9;12.3;;;;;;;13.24;79.71;;;;;
2023/10/10 16:10:34;;;;;;;14.4;10.3;;;;;;;13.15;80.04;;;;;
2023/10/10 16:20:35;;;;;;;14.4;10.3;;;;;;;12.66;81.4;;;;;
2023/10/10 16:31:36;;;;;;;13.5;9.3;;;;;;;12.41;81.05;;;;;
2023/10/10 16:42:34;;;;;;;13.5;9.3;;;;;;;12.04;81.71;;;;;
2023/10/10 16:52:36;;;;;;;13.5;9.3;;;;;;;11.93;84.55;;;;;
2023/10/10 17:03:34;;;;;;;12.3;7.7;;;;;;;11.7;86.36;;;;;
2023/10/10 17:14:37;;;;;;;12.3;7.7;;;;;;;11.75;85.78;;;;;
2023/10/10 17:25:37;;;;;;;12.3;7.7;;;;;;;11.86;85.7;;;;;
2023/10/10 17:36:35;;;;;;;16.9;10.7;;;;;;;11.92;85.58;;;;;
2023/10/10 17:46:34;;;;;;;16.9;10.7;;;;;;;11.89;85.23;;;;;
2023/10/10 17:56:34;;;;;;;16.9;10.7;;;;;;;11.75;85.71;;;;;
2023/10/10 18:07:34;;;;;;;13.4;8.5;;;;;;;11.71;86.02;;;;;
2023/10/10 18:17:34;;;;;;;13.4;8.5;;;;;;;11.65;86.29;;;;;
2023/10/10 18:28:34;;;;;;;13.4;8.5;;;;;;;11.47;87.26;;;;;
2023/10/10 18:38:34;;;;;;;13.6;8;;;;;;;11.49;87.4;;;;;
2023/10/10 18:48:36;;;;;;;13.6;8;;;;;;;11.61;87.41;;;;;
2023/10/10 18:59:34;;;;;;;13.6;8;;;;;;;11.72;86.81;;;;;
2023/10/10 19:09:38;;;;;;;14.4;8.8;;;;;;;11.65;87.02;;;;;
2023/10/10 19:20:36;;;;;;;14.4;8.8;;;;;;;11.74;86.88;;;;;
2023/10/10 19:30:39;;;;;;;14.3;10.2;;;;;;;11.81;86.99;;;;;
2023/10/10 19:40:34;;;;;;;14.3;10.2;;;;;;;11.87;86.26;;;;;
2023/10/10 19:50:34;;;;;;;14.3;10.2;;;;;;;11.84;86.2;;;;;
2023/10/10 20:01:34;;;;;;;18.2;11;;;;;;;11.77;86.57;;;;;
2023/10/10 20:11:34;;;;;;;18.2;11;;;;;;;11.74;86.49;;;;;
2023/10/10 20:21:36;;;;;;;18.2;11;;;;;;;11.5;86.64;;;;;
2023/10/10 20:32:34;;;;;;;19.3;11.8;;;;;;;11.22;86.47;;;;;
2023/10/10 20:42:35;;;;;;;19.3;11.8;;;;;;;11.06;86.48;;;;;
2023/10/10 20:52:37;;;;;;;19.3;11.8;;;;;;;10.85;87.08;;;;;
2023/10/10 21:02:34;;;;;;;17.6;11.4;;;;;;;10.62;87.41;;;;;
2023/10/10 21:13:34;;;;;;;17.6;11.4;;;;;;;10.65;87.87;;;;;
2023/10/10 21:23:34;;;;;;;17.6;11.4;;;;;;;10.79;88.29;;;;;
2023/10/10 21:34:34;;;;;;;22.3;11.9;;;;;;;11.03;88.58;;;;;
2023/10/10 21:45:34;;;;;;;22.3;11.9;;;;;;;11.01;88.25;;;;;
2023/10/10 21:56:34;;;;;;;22.3;11.9;;;;;;;11;88.04;;;;;
2023/10/10 22:06:35;;;;;;;18.3;12;;;;;;;10.94;88.15;;;;;
2023/10/10 22:17:35;;;;;;;18.3;12;;;;;;;10.74;87.83;;;;;
2023/10/10 22:27:34;;;;;;;18.3;12;;;;;;;10.54;87.65;;;;;
2023/10/10 22:38:34;;;;;;;15.7;10.7;;;;;;;11.02;92.13;;;;;
2023/10/10 22:49:35;;;;;;;15.7;10.7;;;;;;;11.23;91.67;;;;;
2023/10/10 23:00:36;;;;;;;14.5;8.9;;;;;;;11.56;91.94;;;;;
2023/10/10 23:10:34;;;;;;;14.5;8.9;;;;;;;11.83;91.43;;;;;
2023/10/10 23:21:34;;;;;;;14.5;8.9;;;;;;;11.99;90.42;;;;;
2023/10/10 23:31:34;;;;;;;13;9.4;;;;;;;12;89.98;;;;;
2023/10/10 23:42:35;;;;;;;13;9.4;;;;;;;12.04;89.49;;;;;
2023/10/10 23:53:36;;;;;;;13;9.4;;;;;;;12.02;89.12;;;;;
